Time;durP1;ratioP1;P1;durP2;ratioP2;P2;SDS_P1;SDS_P2;PMS_P1;PMS_P2;Temp;Humidity;BMP_temperature;BMP_pressure;BME280_temperature;BME280_humidity;BME280_pressure;Samples;Min_cycle;Max_cycle;Signal;HPM_P1;HPM_P2
2023/12/14 05:42:17;;;;;;;0.60;0.60;;;;;;;8.48;60.41;100254.50;4871985;29;20440;-86
2023/12/14 05:44:47;;;;;;;0.80;0.43;;;;;;;8.54;60.41;100250.34;4890547;29;20437;-86
2023/12/14 05:47:15;;;;;;;1.60;1.52;;;;;;;8.62;60.45;100242.38;4893245;29;20408;-85
2023/12/14 05:49:42;;;;;;;0.70;0.70;;;;;;;8.60;60.11;100247.84;4895877;29;20396;-86
2023/12/14 05:52:11;;;;;;;0.22;0.22;;;;;;;8.65;60.31;100272.94;4898827;29;20419;-87
2023/12/14 05:54:37;;;;;;;0.32;0.32;;;;;;;8.66;60.51;100282.50;4884720;29;20463;-84
2023/12/14 05:57:04;;;;;;;0.70;0.70;;;;;;;8.68;60.88;100280.50;4885935;29;20460;-84
2023/12/14 05:59:30;;;;;;;0.60;0.60;;;;;;;8.78;60.48;100229.13;4902305;29;20768;-85
2023/12/14 06:02:00;;;;;;;3.33;2.72;;;;;;;8.64;60.69;100242.22;4902558;29;20954;-90
2023/12/14 06:04:28;;;;;;;0.82;0.82;;;;;;;8.51;60.73;100269.16;4885980;29;20407;-86
2023/12/14 06:06:54;;;;;;;0.75;0.75;;;;;;;8.58;60.68;100268.31;4901610;29;20900;-89
2023/12/14 06:09:33;;;;;;;0.68;0.57;;;;;;;8.68;60.53;100254.94;4901600;29;20483;-88
2023/12/14 06:12:00;;;;;;;1.10;1.10;;;;;;;8.91;60.80;100257.69;4906383;29;20901;-88
2023/12/14 06:14:26;;;;;;;1.33;0.80;;;;;;;8.94;60.18;100245.94;4938557;29;20412;-86
2023/12/14 06:16:55;;;;;;;0.50;0.50;;;;;;;8.93;60.40;100268.91;4911418;29;20400;-89
2023/12/14 06:19:24;;;;;;;1.30;0.88;;;;;;;9.02;60.04;100292.66;4912105;29;20400;-90
2023/12/14 06:21:53;;;;;;;1.50;1.40;;;;;;;8.90;60.43;100279.81;4913113;29;20466;-88
2023/12/14 06:24:20;;;;;;;1.05;0.75;;;;;;;9.02;60.23;100277.66;4913531;29;20392;-89
2023/12/14 06:26:49;;;;;;;5.80;1.38;;;;;;;8.96;59.96;100291.53;4891803;29;20465;-89
2023/12/14 06:29:22;;;;;;;1.77;1.67;;;;;;;8.88;60.72;100318.81;4904337;29;20409;-88
2023/12/14 06:31:50;;;;;;;1.00;0.90;;;;;;;8.92;60.62;100306.91;4908836;29;20407;-87
2023/12/14 06:34:16;;;;;;;2.47;1.40;;;;;;;9.00;60.04;100313.97;4917917;29;20453;-84
2023/12/14 06:36:45;;;;;;;3.67;1.10;;;;;;;9.04;60.23;100314.47;4903703;29;20403;-88
2023/12/14 06:39:12;;;;;;;0.75;0.75;;;;;;;9.06;60.29;100326.53;4904034;29;20939;-88
2023/12/14 06:41:38;;;;;;;1.30;1.20;;;;;;;9.09;60.17;100339.44;4902608;29;20542;-86
2023/12/14 06:44:09;;;;;;;0.32;0.32;;;;;;;9.17;60.41;100333.28;4901995;29;20388;-88
2023/12/14 06:46:37;;;;;;;1.08;0.80;;;;;;;9.23;60.29;100334.41;4902257;29;20405;-88
2023/12/14 06:49:05;;;;;;;0.75;0.60;;;;;;;9.31;60.37;100344.94;4903644;29;20392;-87
2023/12/14 06:51:33;;;;;;;0.32;0.32;;;;;;;9.33;60.13;100330.56;4902306;29;20400;-87
2023/12/14 06:54:08;;;;;;;1.27;1.25;;;;;;;9.41;60.00;100331.53;4903020;29;20397;-87
2023/12/14 06:56:36;;;;;;;0.30;0.30;;;;;;;9.42;60.07;100339.31;4902641;29;20476;-88
2023/12/14 06:59:02;;;;;;;0.70;0.70;;;;;;;9.32;60.02;100349.25;4902756;29;20400;-88
2023/12/14 07:01:28;;;;;;;1.10;1.10;;;;;;;9.25;60.23;100359.69;4899954;29;20792;-87
2023/12/14 07:03:59;;;;;;;1.90;1.80;;;;;;;9.30;60.03;100365.28;4916940;29;20491;-89
2023/12/14 07:06:24;;;;;;;0.97;0.97;;;;;;;9.34;59.90;100379.00;4900979;29;20400;-88
2023/12/14 07:08:50;;;;;;;0.70;0.70;;;;;;;9.38;60.18;100383.78;4902327;29;20396;-86
2023/12/14 07:11:17;;;;;;;2.00;1.30;;;;;;;9.41;60.12;100374.69;4902251;29;20491;-89
2023/12/14 07:13:43;;;;;;;0.98;0.98;;;;;;;9.51;60.22;100371.84;4900482;29;20405;-88
2023/12/14 07:16:12;;;;;;;0.40;0.40;;;;;;;9.60;60.21;100372.63;4899652;29;20393;-86
2023/12/14 07:18:39;;;;;;;2.00;1.90;;;;;;;9.69;60.15;100358.38;4899892;29;20420;-86
2023/12/14 07:21:05;;;;;;;0.55;0.55;;;;;;;9.70;59.84;100363.47;4885145;29;20412;-87
2023/12/14 07:23:31;;;;;;;0.50;0.45;;;;;;;9.69;59.59;100355.72;4900601;29;20813;-88
2023/12/14 07:25:57;;;;;;;0.70;0.70;;;;;;;9.71;60.22;100366.97;4894509;29;20436;-88
2023/12/14 07:28:26;;;;;;;0.80;0.80;;;;;;;9.61;59.85;100387.50;4887837;29;20468;-86
2023/12/14 07:30:54;;;;;;;1.20;1.00;;;;;;;9.53;60.02;100397.13;4893348;29;20904;-86
2023/12/14 07:33:20;;;;;;;0.80;0.80;;;;;;;9.54;60.70;100404.09;4881528;29;20914;-89
2023/12/14 07:35:51;;;;;;;1.77;1.67;;;;;;;9.61;60.72;100417.44;4897570;29;20412;-86
2023/12/14 07:38:19;;;;;;;1.65;1.55;;;;;;;9.71;60.43;100402.19;4893096;29;20416;-87
2023/12/14 07:40:49;;;;;;;0.90;0.90;;;;;;;9.69;60.52;100400.72;4885027;29;20418;-87
2023/12/14 07:43:16;;;;;;;0.95;0.95;;;;;;;9.81;60.09;100406.44;4886849;29;20989;-88
2023/12/14 07:45:41;;;;;;;0.60;0.50;;;;;;;9.90;60.46;100393.03;4898360;29;20520;-88
2023/12/14 07:48:10;;;;;;;0.47;0.47;;;;;;;9.96;60.36;100388.84;4901027;29;20481;-83
2023/12/14 07:50:36;;;;;;;0.70;0.70;;;;;;;10.02;60.25;100395.28;4892815;29;20402;-87
2023/12/14 07:53:02;;;;;;;0.75;0.75;;;;;;;10.14;60.41;100391.22;4888064;29;20437;-87
2023/12/14 07:55:31;;;;;;;1.30;1.20;;;;;;;10.10;60.04;100387.25;4892031;29;20946;-86
2023/12/14 07:57:56;;;;;;;1.70;1.55;;;;;;;10.03;60.70;100396.91;4899570;29;20412;-89
2023/12/14 08:00:25;;;;;;;1.73;1.63;;;;;;;9.90;61.57;100392.16;4898256;29;20524;-87
2023/12/14 08:02:51;;;;;;;1.15;0.95;;;;;;;10.06;61.35;100392.06;4899580;29;20411;-86
2023/12/14 08:05:17;;;;;;;1.40;1.27;;;;;;;10.08;61.44;100387.47;4899808;29;20777;-86
2023/12/14 08:07:42;;;;;;;1.45;1.35;;;;;;;10.22;61.58;100391.16;4885018;29;20409;-90
2023/12/14 08:10:16;;;;;;;0.57;0.57;;;;;;;10.33;61.04;100387.31;4900736;29;20441;-85
2023/12/14 08:12:44;;;;;;;0.43;0.43;;;;;;;10.42;61.23;100370.34;4903089;29;20991;-89
2023/12/14 08:15:10;;;;;;;1.10;0.90;;;;;;;10.52;61.19;100372.78;4902587;29;20389;-87
2023/12/14 08:17:36;;;;;;;0.77;0.77;;;;;;;10.57;61.31;100359.81;4904531;29;20481;-85
2023/12/14 08:20:01;;;;;;;1.10;1.00;;;;;;;10.71;60.95;100358.19;4906844;29;20500;-88
2023/12/14 08:22:30;;;;;;;0.70;0.70;;;;;;;10.78;60.74;100355.66;4901743;29;20412;-87
2023/12/14 08:24:57;;;;;;;0.45;0.45;;;;;;;10.91;61.03;100361.16;4898849;29;20400;-87
2023/12/14 08:27:25;;;;;;;0.47;0.47;;;;;;;10.90;61.15;100355.03;4860795;29;20438;-87
2023/12/14 08:29:55;;;;;;;4.10;2.67;;;;;;;10.88;61.27;100375.59;4846226;29;20394;-87
2023/12/14 08:32:24;;;;;;;0.50;0.50;;;;;;;10.87;61.59;100362.53;4842286;29;20432;-88
2023/12/14 08:34:52;;;;;;;1.65;1.30;;;;;;;10.86;61.83;100369.66;4861874;29;20406;-88
2023/12/14 08:38:03;;;;;;;0.73;0.73;;;;;;;10.94;61.74;100382.00;5142648;27;20425;-87
2023/12/14 08:40:34;;;;;;;0.65;0.60;;;;;;;11.00;61.99;100383.97;5097559;28;20481;-90
2023/12/14 08:43:05;;;;;;;1.23;1.07;;;;;;;11.12;61.99;100391.47;5077307;28;20772;-87
2023/12/14 08:45:32;;;;;;;0.73;0.73;;;;;;;11.33;61.82;100383.59;5123504;27;20465;-89
2023/12/14 08:48:00;;;;;;;0.40;0.40;;;;;;;11.45;61.69;100400.72;5104266;28;20487;-91
2023/12/14 08:50:26;;;;;;;0.40;0.40;;;;;;;11.58;61.38;100389.47;5107355;28;20384;-88
2023/12/14 08:53:11;;;;;;;0.40;0.40;;;;;;;11.64;61.40;100394.00;5107128;28;20456;-90
2023/12/14 08:55:40;;;;;;;0.20;0.20;;;;;;;11.65;61.55;100386.91;5107807;28;20388;-92
2023/12/14 08:58:14;;;;;;;0.70;0.70;;;;;;;11.76;61.42;100380.28;5081105;28;20417;-91
2023/12/14 09:00:43;;;;;;;0.82;0.82;;;;;;;11.72;61.80;100355.09;5124069;28;20394;-91
2023/12/14 09:03:09;;;;;;;1.08;0.75;;;;;;;11.81;61.50;100352.16;5087393;28;20477;-92
2023/12/14 09:05:36;;;;;;;0.45;0.45;;;;;;;11.94;61.80;100363.94;5091396;28;20389;-88
2023/12/14 09:08:03;;;;;;;0.70;0.70;;;;;;;12.04;61.37;100365.28;5103400;28;20398;-90
2023/12/14 09:10:29;;;;;;;0.25;0.25;;;;;;;12.10;61.21;100353.13;5105919;28;20458;-87
2023/12/14 09:12:56;;;;;;;0.73;0.63;;;;;;;12.30;61.04;100363.09;5122502;28;20430;-89
2023/12/14 09:15:24;;;;;;;1.17;0.63;;;;;;;12.27;60.83;100359.00;5085884;28;20901;-87
2023/12/14 09:17:53;;;;;;;1.13;0.68;;;;;;;12.32;61.53;100353.13;5086637;28;20469;-87
2023/12/14 09:20:21;;;;;;;1.30;1.10;;;;;;;12.48;61.02;100363.50;5087227;28;20498;-87
2023/12/14 09:22:50;;;;;;;0.70;0.70;;;;;;;12.49;61.09;100364.31;5104296;28;20554;-87
2023/12/14 09:25:19;;;;;;;0.57;0.57;;;;;;;12.49;61.16;100372.28;5105942;28;20473;-88
2023/12/14 09:27:51;;;;;;;0.70;0.70;;;;;;;12.53;61.34;100376.19;5108630;28;20785;-87
2023/12/14 09:30:31;;;;;;;0.60;0.60;;;;;;;12.55;61.24;100361.72;5123218;28;20383;-87
2023/12/14 09:32:57;;;;;;;1.20;0.80;;;;;;;12.64;61.30;100373.03;5086360;28;20394;-88
2023/12/14 09:35:26;;;;;;;3.43;2.03;;;;;;;12.67;61.36;100364.66;5101984;28;20789;-89
2023/12/14 09:37:56;;;;;;;4.45;3.05;;;;;;;12.78;61.33;100372.13;5102334;28;20403;-88
2023/12/14 09:40:22;;;;;;;2.03;1.30;;;;;;;12.93;61.05;100382.69;5120357;28;20394;-89
2023/12/14 09:42:52;;;;;;;1.67;1.58;;;;;;;13.03;60.68;100382.31;5087954;28;20394;-88
2023/12/14 09:45:20;;;;;;;0.52;0.52;;;;;;;13.19;60.33;100389.19;5106254;28;20447;-87
2023/12/14 09:47:46;;;;;;;1.65;1.42;;;;;;;13.28;60.10;100396.00;5087416;28;20410;-88
2023/12/14 09:50:14;;;;;;;0.80;0.70;;;;;;;13.11;60.18;100386.69;5078712;28;20395;-87
2023/12/14 09:52:44;;;;;;;2.40;1.30;;;;;;;13.16;60.11;100394.88;5095249;28;20387;-87
2023/12/14 09:55:11;;;;;;;0.40;0.40;;;;;;;13.00;60.47;100398.69;5090969;28;20394;-88
2023/12/14 09:57:42;;;;;;;0.20;0.20;;;;;;;13.03;60.68;100394.81;5072205;28;20407;-85
2023/12/14 10:00:13;;;;;;;0.25;0.25;;;;;;;13.00;60.34;100404.84;5073308;28;20397;-86
2023/12/14 10:02:49;;;;;;;0.80;0.80;;;;;;;13.01;60.80;100405.66;5088904;28;20411;-86
2023/12/14 10:05:21;;;;;;;0.35;0.35;;;;;;;12.93;60.47;100400.47;5090085;28;20470;-87
2023/12/14 10:07:51;;;;;;;0.45;0.45;;;;;;;12.91;60.74;100408.66;5071047;28;20472;-87
2023/12/14 10:10:19;;;;;;;0.82;0.63;;;;;;;12.84;60.26;100418.41;5090313;28;20419;-89
2023/12/14 10:12:53;;;;;;;0.45;0.45;;;;;;;12.69;60.93;100441.59;5075270;28;20840;-92
2023/12/14 10:15:19;;;;;;;0.22;0.22;;;;;;;12.58;60.77;100453.56;5063712;28;20393;-91
2023/12/14 10:17:50;;;;;;;1.75;0.70;;;;;;;12.65;61.08;100443.81;5072913;28;20423;-88
2023/12/14 10:20:26;;;;;;;0.70;0.70;;;;;;;12.50;61.08;100441.22;5076767;28;20467;-93
2023/12/14 10:22:55;;;;;;;0.20;0.20;;;;;;;12.38;60.88;100421.47;5077123;28;20407;-90
2023/12/14 10:25:22;;;;;;;0.60;0.55;;;;;;;12.52;60.84;100422.44;5058504;28;20391;-89
2023/12/14 10:27:48;;;;;;;1.70;0.90;;;;;;;12.36;60.74;100432.28;5057066;28;20407;-87
2023/12/14 10:30:15;;;;;;;1.30;0.90;;;;;;;12.48;60.73;100453.03;5054564;28;20493;-84
2023/12/14 10:37:55;;;;;;;1.00;1.00;;;;;;;12.41;60.83;100439.69;5010133;28;20444;-83
2023/12/14 10:40:23;;;;;;;1.63;1.30;;;;;;;12.30;60.64;100434.84;5009953;28;20791;-84
2023/12/14 10:42:52;;;;;;;0.68;0.68;;;;;;;12.35;61.01;100424.47;4993528;28;20450;-86
2023/12/14 10:45:34;;;;;;;0.60;0.60;;;;;;;12.40;60.77;100411.47;5010321;28;20403;-85
2023/12/14 10:48:01;;;;;;;0.50;0.50;;;;;;;12.43;60.60;100385.31;5007738;28;20903;-86
2023/12/14 10:50:30;;;;;;;0.60;0.50;;;;;;;12.43;60.56;100390.63;5011669;28;20779;-84
2023/12/14 10:53:01;;;;;;;0.20;0.20;;;;;;;12.40;60.56;100403.47;5017885;28;20462;-84
2023/12/14 10:55:30;;;;;;;1.40;1.30;;;;;;;12.52;60.75;100420.56;5011034;28;20400;-86
2023/12/14 10:57:57;;;;;;;0.68;0.68;;;;;;;12.59;60.98;100415.34;5010259;28;20407;-85
2023/12/14 11:00:23;;;;;;;2.10;0.80;;;;;;;12.59;60.58;100420.66;5004114;28;20396;-86
2023/12/14 11:02:52;;;;;;;2.47;2.10;;;;;;;12.57;60.94;100438.63;5006446;28;20406;-87
2023/12/14 11:05:28;;;;;;;0.63;0.63;;;;;;;12.53;60.91;100443.50;5012181;28;20388;-88
2023/12/14 11:08:03;;;;;;;0.20;0.20;;;;;;;12.62;61.11;100438.88;5014600;28;20799;-87
2023/12/14 11:10:37;;;;;;;0.60;0.60;;;;;;;12.73;60.60;100440.19;4987864;28;20406;-85
2023/12/14 11:13:10;;;;;;;0.20;0.20;;;;;;;12.76;60.47;100445.13;5006279;28;20588;-85
2023/12/14 11:15:37;;;;;;;0.82;0.82;;;;;;;12.75;60.48;100438.19;5006088;28;20399;-87
2023/12/14 11:18:11;;;;;;;0.10;0.10;;;;;;;12.71;60.46;100434.25;5002769;28;20415;-84
2023/12/14 11:20:46;;;;;;;0.45;0.45;;;;;;;12.68;60.85;100453.25;5010580;28;20390;-84
2023/12/14 11:23:19;;;;;;;0.40;0.40;;;;;;;12.73;60.79;100466.78;4982475;28;20401;-84
2023/12/14 11:25:49;;;;;;;0.32;0.32;;;;;;;12.85;60.50;100481.22;4973810;28;20404;-85
2023/12/14 11:28:15;;;;;;;1.33;1.23;;;;;;;12.71;60.58;100479.44;4953489;28;20408;-87
2023/12/14 11:30:44;;;;;;;1.80;0.75;;;;;;;12.66;60.65;100495.16;4971545;28;20958;-85
2023/12/14 11:33:16;;;;;;;0.50;0.50;;;;;;;12.68;60.95;100499.28;4985735;28;20814;-85
2023/12/14 11:35:44;;;;;;;0.38;0.38;;;;;;;12.74;60.77;100500.38;4971594;28;20417;-85
2023/12/14 11:38:15;;;;;;;0.50;0.50;;;;;;;12.78;60.73;100496.31;4971981;28;20394;-86
2023/12/14 11:40:42;;;;;;;0.80;0.80;;;;;;;12.69;60.84;100478.81;4988313;28;20441;-86
2023/12/14 11:43:09;;;;;;;3.60;1.07;;;;;;;12.70;60.66;100465.34;4956726;28;21223;-84
2023/12/14 11:45:39;;;;;;;0.20;0.20;;;;;;;12.79;60.52;100461.53;4969354;28;20457;-85
2023/12/14 11:48:10;;;;;;;0.20;0.20;;;;;;;12.79;60.37;100450.91;4965615;28;20457;-85
2023/12/14 11:50:38;;;;;;;0.35;0.35;;;;;;;12.79;60.33;100450.91;4965033;28;20987;-85
2023/12/14 11:53:04;;;;;;;0.23;0.23;;;;;;;12.81;60.12;100451.53;4960386;28;20397;-86
2023/12/14 11:55:37;;;;;;;0.30;0.30;;;;;;;12.85;60.17;100445.84;4973143;28;20465;-86
2023/12/14 11:58:04;;;;;;;0.20;0.20;;;;;;;12.86;60.32;100444.84;4973509;28;20545;-86
2023/12/14 12:00:33;;;;;;;0.30;0.30;;;;;;;12.84;59.91;100454.81;4987704;28;20422;-86
2023/12/14 12:03:20;;;;;;;0.50;0.50;;;;;;;12.95;60.02;100459.63;5013564;28;20395;-83
2023/12/14 12:05:51;;;;;;;0.57;0.53;;;;;;;12.95;59.88;100463.13;4997606;28;20416;-85
2023/12/14 12:08:19;;;;;;;1.20;0.70;;;;;;;12.91;59.99;100458.34;5008833;28;20408;-86
2023/12/14 12:10:46;;;;;;;0.40;0.40;;;;;;;12.96;60.14;100450.63;4991817;28;20400;-86
2023/12/14 12:13:14;;;;;;;1.00;0.63;;;;;;;13.05;60.18;100464.63;5009321;28;20414;-86
2023/12/14 12:15:41;;;;;;;0.60;0.60;;;;;;;13.14;59.79;100464.31;4989368;28;20466;-83
2023/12/14 12:18:10;;;;;;;0.85;0.80;;;;;;;13.08;59.62;100462.41;4995838;28;20412;-85
2023/12/14 12:20:37;;;;;;;0.50;0.45;;;;;;;13.13;60.19;100462.66;5008449;28;20388;-84
2023/12/14 12:23:03;;;;;;;0.30;0.30;;;;;;;13.05;60.41;100460.13;5015862;28;20410;-86
2023/12/14 12:25:34;;;;;;;0.52;0.40;;;;;;;13.07;60.21;100462.59;4980648;28;20388;-88
2023/12/14 12:28:01;;;;;;;0.22;0.22;;;;;;;13.07;60.26;100476.75;4974808;28;20400;-88
2023/12/14 12:30:27;;;;;;;0.40;0.40;;;;;;;12.89;60.58;100466.56;5007796;28;20414;-87
2023/12/14 12:32:55;;;;;;;0.30;0.30;;;;;;;12.86;60.39;100472.25;5008547;28;20388;-85
2023/12/14 12:35:23;;;;;;;1.02;0.93;;;;;;;12.91;60.36;100475.16;5007764;28;20885;-85
2023/12/14 12:37:53;;;;;;;1.38;0.50;;;;;;;12.93;60.07;100475.78;5009232;28;20496;-84
2023/12/14 12:40:26;;;;;;;0.68;0.40;;;;;;;12.88;59.74;100483.50;5011664;28;20393;-87
2023/12/14 12:42:52;;;;;;;0.25;0.25;;;;;;;12.91;59.84;100476.97;4994256;28;20989;-86
2023/12/14 12:45:18;;;;;;;0.40;0.40;;;;;;;12.97;59.30;100473.56;5012459;28;20423;-85
2023/12/14 12:47:48;;;;;;;0.40;0.30;;;;;;;13.02;59.83;100473.81;5003332;28;20484;-86
2023/12/14 12:50:14;;;;;;;0.30;0.30;;;;;;;13.06;58.98;100474.25;5026920;28;20384;-84
2023/12/14 12:52:42;;;;;;;0.13;0.13;;;;;;;12.99;59.27;100468.88;5021290;28;20428;-85
2023/12/14 12:55:09;;;;;;;0.10;0.10;;;;;;;12.99;59.17;100471.53;5009873;28;20399;-86
2023/12/14 12:57:35;;;;;;;0.20;0.20;;;;;;;12.99;59.06;100468.88;5011702;28;20783;-87
2023/12/14 13:00:04;;;;;;;0.20;0.20;;;;;;;13.06;58.95;100467.09;5006247;28;20736;-86
2023/12/14 13:02:33;;;;;;;0.32;0.20;;;;;;;12.92;58.79;100454.69;5025192;28;20768;-86
2023/12/14 13:05:01;;;;;;;0.15;0.15;;;;;;;12.78;59.29;100456.41;5005690;28;20472;-86
2023/12/14 13:07:27;;;;;;;0.20;0.20;;;;;;;12.73;59.43;100446.34;5011954;28;20399;-86
2023/12/14 13:09:52;;;;;;;0.10;0.10;;;;;;;12.84;59.38;100453.00;5011163;28;20394;-87
2023/12/14 13:12:18;;;;;;;0.10;0.10;;;;;;;12.90;59.04;100449.56;5006058;28;20399;-87
2023/12/14 13:14:44;;;;;;;0.32;0.32;;;;;;;12.91;59.19;100451.22;5008831;28;20395;-87
2023/12/14 13:17:09;;;;;;;0.38;0.38;;;;;;;12.89;58.96;100437.28;5010002;28;20414;-86
2023/12/14 13:19:35;;;;;;;0.50;0.33;;;;;;;12.92;59.05;100444.06;5011238;28;20394;-85
2023/12/14 13:22:01;;;;;;;0.20;0.20;;;;;;;12.91;58.97;100434.41;5000971;28;20416;-87
2023/12/14 13:24:47;;;;;;;0.10;0.10;;;;;;;12.82;59.09;100428.44;4990957;28;20449;-86
2023/12/14 13:27:13;;;;;;;0.10;0.10;;;;;;;12.90;59.05;100435.44;4916259;29;20406;-86
2023/12/14 13:29:38;;;;;;;0.30;0.30;;;;;;;12.99;58.91;100427.13;4988291;28;20401;-87
2023/12/14 13:32:04;;;;;;;0.15;0.15;;;;;;;12.99;58.80;100435.09;4975092;28;20484;-91
2023/12/14 13:34:32;;;;;;;0.40;0.40;;;;;;;13.04;58.86;100447.84;4992602;28;20385;-88
2023/12/14 13:37:00;;;;;;;0.30;0.30;;;;;;;13.00;58.62;100452.72;4976062;28;20417;-86
2023/12/14 13:39:27;;;;;;;0.20;0.20;;;;;;;13.01;58.63;100457.00;4973018;28;20408;-86
2023/12/14 13:41:53;;;;;;;0.20;0.20;;;;;;;13.07;58.42;100463.44;4974991;28;21035;-86
2023/12/14 13:44:22;;;;;;;0.40;0.40;;;;;;;13.09;58.53;100469.38;4977625;28;20409;-90
2023/12/14 13:46:50;;;;;;;0.30;0.30;;;;;;;13.17;58.22;100463.91;4977311;28;20390;-86
2023/12/14 13:49:16;;;;;;;0.25;0.25;;;;;;;13.17;57.89;100476.38;4974125;28;20402;-87
2023/12/14 13:51:45;;;;;;;0.67;0.67;;;;;;;13.11;58.25;100472.66;4945681;29;20860;-88
2023/12/14 13:54:14;;;;;;;0.30;0.30;;;;;;;13.09;58.40;100473.84;4959230;29;20476;-87
2023/12/14 13:56:40;;;;;;;0.20;0.20;;;;;;;13.10;58.35;100472.84;4938508;29;20409;-88
2023/12/14 13:59:08;;;;;;;0.20;0.20;;;;;;;13.13;58.24;100469.81;4939477;29;20393;-87
2023/12/14 14:01:37;;;;;;;0.20;0.20;;;;;;;13.16;58.09;100480.06;4953725;28;20405;-89
2023/12/14 14:04:03;;;;;;;2.13;1.90;;;;;;;13.08;58.55;100491.66;4991664;28;20473;-86
2023/12/14 14:06:29;;;;;;;5.45;2.05;;;;;;;13.06;58.34;100480.41;4990128;28;20898;-87
2023/12/14 14:09:06;;;;;;;1.42;1.33;;;;;;;12.98;58.38;100480.53;4986233;28;20472;-84
2023/12/14 14:11:34;;;;;;;1.50;1.40;;;;;;;12.95;58.66;100489.72;4980229;28;20398;-86
2023/12/14 14:14:01;;;;;;;1.05;0.57;;;;;;;12.90;58.15;100486.00;4988002;28;20838;-90
2023/12/14 14:16:34;;;;;;;0.65;0.65;;;;;;;12.84;58.48;100497.38;4974122;28;20869;-90
2023/12/14 14:18:59;;;;;;;0.93;0.80;;;;;;;12.79;58.34;100504.09;4982876;28;20517;-87
2023/12/14 14:21:25;;;;;;;0.32;0.32;;;;;;;12.58;58.55;100498.75;4993010;28;20433;-89
2023/12/14 14:23:50;;;;;;;0.55;0.55;;;;;;;12.67;58.21;100512.78;4994258;28;20390;-86
2023/12/14 14:26:16;;;;;;;0.80;0.80;;;;;;;12.72;58.66;100510.38;4991949;28;20448;-90
2023/12/14 14:28:43;;;;;;;0.80;0.80;;;;;;;12.90;58.32;100518.72;5014349;28;20411;-83
2023/12/14 14:31:11;;;;;;;0.57;0.57;;;;;;;12.86;58.38;100514.81;5015985;28;20392;-86
2023/12/14 14:33:37;;;;;;;2.03;1.85;;;;;;;12.89;58.35;100508.28;5013110;28;20396;-85
2023/12/14 14:36:05;;;;;;;0.98;0.95;;;;;;;12.84;58.25;100516.84;5012841;28;20450;-90
2023/12/14 14:38:31;;;;;;;0.70;0.70;;;;;;;12.87;58.32;100524.41;5017009;28;20395;-86
2023/12/14 14:40:57;;;;;;;1.05;0.95;;;;;;;12.90;58.01;100520.56;5026469;28;20716;-88
2023/12/14 14:43:24;;;;;;;0.90;0.90;;;;;;;13.02;58.05;100545.66;5025167;28;20863;-85
2023/12/14 14:45:49;;;;;;;0.88;0.88;;;;;;;13.09;58.36;100545.72;5012223;28;20490;-86
2023/12/14 14:48:18;;;;;;;0.60;0.60;;;;;;;12.97;58.26;100538.25;5010454;28;20494;-85
2023/12/14 14:50:50;;;;;;;0.30;0.30;;;;;;;12.78;58.11;100533.53;5002675;28;20396;-87
2023/12/14 14:53:16;;;;;;;1.25;1.02;;;;;;;12.79;58.13;100544.00;5011226;28;20396;-85
2023/12/14 14:55:43;;;;;;;0.50;0.50;;;;;;;12.79;58.12;100544.00;5023136;28;21022;-86
2023/12/14 14:58:09;;;;;;;0.30;0.30;;;;;;;12.82;58.17;100554.28;4998021;28;20843;-89
2023/12/14 15:00:38;;;;;;;0.52;0.52;;;;;;;12.84;58.24;100553.22;5004240;28;20906;-85
2023/12/14 15:03:08;;;;;;;0.60;0.60;;;;;;;12.83;58.26;100555.09;5011472;28;20402;-85
2023/12/14 15:05:40;;;;;;;1.27;1.20;;;;;;;12.83;58.24;100549.75;5005889;28;20413;-85
2023/12/14 15:08:10;;;;;;;0.20;0.20;;;;;;;12.84;58.16;100556.75;5013720;28;20415;-85
2023/12/14 15:10:37;;;;;;;0.75;0.75;;;;;;;12.78;58.32;100560.97;5019694;28;20391;-86
2023/12/14 15:13:05;;;;;;;0.27;0.27;;;;;;;12.78;58.25;100568.97;5009727;28;20423;-85
2023/12/14 15:15:32;;;;;;;0.77;0.77;;;;;;;12.88;58.34;100575.81;5008955;28;20859;-84
2023/12/14 15:17:58;;;;;;;0.40;0.40;;;;;;;12.88;58.14;100592.59;5007849;28;20812;-83
2023/12/14 15:20:24;;;;;;;0.83;0.63;;;;;;;12.87;58.35;100584.78;5002463;28;20912;-85
2023/12/14 15:22:51;;;;;;;0.60;0.60;;;;;;;12.91;57.97;100586.06;5009528;28;20438;-85
2023/12/14 15:25:22;;;;;;;0.65;0.57;;;;;;;12.89;58.00;100582.75;5010049;28;20450;-87
2023/12/14 15:27:55;;;;;;;0.70;0.70;;;;;;;12.81;58.11;100586.38;5010178;28;20388;-86
2023/12/14 15:30:23;;;;;;;1.15;0.95;;;;;;;12.92;57.81;100595.69;5009853;28;20397;-86
2023/12/14 15:32:49;;;;;;;3.45;2.50;;;;;;;12.81;58.16;100591.69;5006474;28;20516;-84
2023/12/14 15:35:20;;;;;;;1.15;1.10;;;;;;;12.85;58.01;100598.28;5020082;28;20477;-85
2023/12/14 15:37:47;;;;;;;0.80;0.80;;;;;;;12.86;58.16;100599.94;5017491;28;20421;-85
2023/12/14 15:40:12;;;;;;;1.77;1.67;;;;;;;12.87;58.04;100603.41;5011596;28;20473;-85
2023/12/14 15:42:38;;;;;;;1.08;1.08;;;;;;;12.86;57.87;100607.91;5014384;28;20521;-86
2023/12/14 15:45:10;;;;;;;0.50;0.50;;;;;;;12.87;58.02;100619.38;5011303;28;20393;-85
2023/12/14 15:47:39;;;;;;;0.77;0.77;;;;;;;12.84;58.09;100627.72;5021330;28;20871;-85
2023/12/14 15:50:05;;;;;;;0.52;0.52;;;;;;;12.78;58.32;100634.63;5010529;28;20402;-83
2023/12/14 15:52:32;;;;;;;1.20;0.80;;;;;;;12.70;58.31;100632.91;5010210;28;20403;-85
2023/12/14 15:55:00;;;;;;;0.43;0.43;;;;;;;12.73;58.30;100637.84;5007188;28;20412;-85
2023/12/14 15:57:29;;;;;;;0.77;0.77;;;;;;;12.70;58.51;100635.56;5022882;28;20441;-85
2023/12/14 15:59:55;;;;;;;0.43;0.43;;;;;;;12.74;58.33;100642.16;5036844;28;20896;-86
2023/12/14 16:02:26;;;;;;;1.40;1.10;;;;;;;12.63;58.22;100632.81;5014154;28;20911;-86
2023/12/14 16:04:56;;;;;;;0.90;0.90;;;;;;;12.70;58.28;100624.09;4977356;28;20387;-85
2023/12/14 16:07:42;;;;;;;2.22;0.77;;;;;;;12.73;58.05;100613.06;4953718;28;20395;-84
2023/12/14 16:10:14;;;;;;;1.48;0.88;;;;;;;12.79;58.21;100615.00;4959580;28;20410;-84
2023/12/14 16:13:03;;;;;;;0.90;0.80;;;;;;;12.71;57.94;100609.78;4969199;28;20486;-83
2023/12/14 16:15:32;;;;;;;0.75;0.75;;;;;;;12.76;58.18;100626.81;4974961;28;20811;-82
2023/12/14 16:17:59;;;;;;;0.50;0.50;;;;;;;12.68;57.99;100637.56;4939831;28;20460;-85
2023/12/14 16:20:25;;;;;;;1.42;0.65;;;;;;;12.75;58.35;100657.09;4978623;28;20394;-88
2023/12/14 16:22:52;;;;;;;0.30;0.30;;;;;;;12.71;58.41;100652.31;4958492;28;20419;-85
2023/12/14 16:25:21;;;;;;;0.40;0.40;;;;;;;12.70;58.32;100638.22;4956132;28;20470;-87
2023/12/14 16:27:50;;;;;;;1.63;0.57;;;;;;;12.71;58.36;100634.56;4982508;28;20968;-85
2023/12/14 16:30:19;;;;;;;0.70;0.70;;;;;;;12.72;58.35;100640.69;4957338;28;20902;-85
2023/12/14 16:32:47;;;;;;;0.40;0.40;;;;;;;12.75;58.05;100645.66;4958346;28;20442;-87
2023/12/14 16:35:32;;;;;;;0.70;0.70;;;;;;;12.78;58.09;100637.28;4964895;28;20405;-86
2023/12/14 16:37:58;;;;;;;2.40;2.05;;;;;;;12.78;58.19;100645.25;5019402;28;20495;-85
2023/12/14 16:40:30;;;;;;;2.92;2.45;;;;;;;12.76;58.26;100650.75;5021957;28;20876;-85
2023/12/14 16:42:55;;;;;;;4.38;3.20;;;;;;;12.74;58.40;100649.31;5009914;28;20457;-84
2023/12/14 16:45:24;;;;;;;9.03;3.30;;;;;;;12.71;58.41;100647.00;5008996;28;20388;-84
2023/12/14 16:47:51;;;;;;;2.90;2.00;;;;;;;12.69;58.32;100636.56;5006897;28;20391;-85
2023/12/14 16:50:22;;;;;;;2.65;1.52;;;;;;;12.65;58.35;100637.13;5014219;28;20410;-86
2023/12/14 16:52:49;;;;;;;2.35;2.15;;;;;;;12.66;58.21;100654.72;5011049;28;20392;-83
2023/12/14 16:55:14;;;;;;;2.10;1.92;;;;;;;12.59;58.23;100652.81;5016119;28;20887;-84
2023/12/14 16:57:40;;;;;;;2.40;1.75;;;;;;;12.59;58.36;100659.97;5009475;28;20807;-88
2023/12/14 17:00:10;;;;;;;3.90;2.85;;;;;;;12.48;58.28;100671.88;5012631;28;20432;-85
2023/12/14 17:02:35;;;;;;;1.80;1.58;;;;;;;12.33;58.63;100677.19;4993999;28;20923;-85
2023/12/14 17:05:04;;;;;;;1.30;1.20;;;;;;;12.30;58.46;100666.09;5012078;28;20388;-85
2023/12/14 17:07:32;;;;;;;0.77;0.77;;;;;;;12.29;58.84;100667.94;5012804;28;20412;-86
2023/12/14 17:09:58;;;;;;;0.93;0.85;;;;;;;12.32;58.48;100680.03;5012914;28;20392;-85
2023/12/14 17:12:27;;;;;;;1.25;1.17;;;;;;;12.21;58.53;100671.50;5029774;28;20402;-86
2023/12/14 17:14:55;;;;;;;1.42;1.02;;;;;;;12.29;58.48;100688.38;5022643;28;20414;-86
2023/12/14 17:17:23;;;;;;;0.70;0.63;;;;;;;12.26;58.40;100675.44;5027800;28;20523;-86
2023/12/14 17:19:48;;;;;;;0.68;0.68;;;;;;;12.28;58.43;100682.25;5014782;28;20498;-86